Anchorage, AK (99515)

8:27 AM AKST on January 29, 2015 (GMT -0900)
Oceanview | Change Station
CLOSE
Current Station
Personal Weather Station
Location: Anchorage, AK
Elevation: 75 ft
Nearby Weather Stations

Elev 75 ft 61.11 °N, 149.91 °W | Updated 8 seconds ago

Clear
Clear
8.8 °F
Feels Like 9 °F
N
1.6
Wind Variable Wind from SSW
Gusts 3.1 mph

Today
High -- | Low -- °F
--% Chance of Precip.
Yesterday
High -- | Low -- °F
Precip. -- in
9:26 AM 4:59 PM
Waxing Gibbous, 75% visible
Pressure 30.04 in
Visibility 10.0 miles
Clouds Clear
Windchill 9 °F
Dew Point -5 °F
Humidity 52%
Rainfall 0.00 in
Snow Depth Not available.
UV 0 out of 12
Pollen Not available.
Air Quality Not available.
Flu Activity Not available.
METAR PALH 291653Z 07003KT 10SM CLR M13/M18 A3004 RMK AO2 SLP173 T11331178

More Conditions Fewer Conditions

Pressure 30.04 in
Visibility 10.0 miles
Clouds Clear
Windchill 9 °F
Dew Point -5 °F
Humidity 52%
Rainfall 0.00 in
Snow Depth Not available.
UV 0 out of 12
Pollen Not available.
Air Quality Not available.
Flu Activity Not available.
METAR PALH 291653Z 07003KT 10SM CLR M13/M18 A3004 RMK AO2 SLP173 T11331178

More Conditions Fewer Conditions

10-Day Weather Forecast

Almanac

Astronomy

Jan. 29, 2015 Rise Set
Actual Time
Civil Twilight
Nautical Twilight
Astronomical Twilight
Moon
Length of Visible Light
Length of Day
Tomorrow will be .
, % of the Moon is Illuminated

Today's Extremes

State Highs State Lows

Community

WunderPhotos

Upload Photos

1,791,481 photos uploaded!

WunderBlogs® & News

Nearby

Air Quality

  Air Quality AQ Index Pollutant
Not available.

Snow Depth

Station Depth Elevation

Earthquake Activity

City Distance Mag. Time & Date
Minimum magnitude displayed is 2.5.

Coastal Water Temperatures

Place Temperature

Nearby Weather Stations